sensor_id;sensor_type;location;lat;lon;timestamp;P1;durP1;ratioP1;P2;durP2;ratioP2
3280;SDS011;1652;51.31805600;6.20194400;2024-01-30T00:05:29;16.23;;;11.10;;
3280;SDS011;1652;51.31805600;6.20194400;2024-01-30T00:07:56;17.53;;;11.10;;
3280;SDS011;1652;51.31805600;6.20194400;2024-01-30T00:10:23;23.47;;;11.97;;
3280;SDS011;1652;51.31805600;6.20194400;2024-01-30T00:12:50;21.93;;;12.57;;
3280;SDS011;1652;51.31805600;6.20194400;2024-01-30T00:15:17;32.80;;;13.63;;
3280;SDS011;1652;51.31805600;6.20194400;2024-01-30T00:17:44;20.77;;;11.13;;
3280;SDS011;1652;51.31805600;6.20194400;2024-01-30T00:20:11;16.33;;;9.90;;
3280;SDS011;1652;51.31805600;6.20194400;2024-01-30T00:22:38;19.60;;;11.47;;
3280;SDS011;1652;51.31805600;6.20194400;2024-01-30T00:25:05;22.70;;;11.80;;
3280;SDS011;1652;51.31805600;6.20194400;2024-01-30T00:27:32;15.50;;;10.80;;
3280;SDS011;1652;51.31805600;6.20194400;2024-01-30T00:29:59;16.10;;;11.30;;
3280;SDS011;1652;51.31805600;6.20194400;2024-01-30T00:32:26;17.00;;;10.20;;
3280;SDS011;1652;51.31805600;6.20194400;2024-01-30T00:34:53;18.40;;;10.70;;
3280;SDS011;1652;51.31805600;6.20194400;2024-01-30T00:37:20;16.00;;;10.07;;
3280;SDS011;1652;51.31805600;6.20194400;2024-01-30T00:39:47;20.37;;;10.70;;
3280;SDS011;1652;51.31805600;6.20194400;2024-01-30T00:42:14;15.50;;;10.50;;
3280;SDS011;1652;51.31805600;6.20194400;2024-01-30T00:44:41;18.67;;;11.67;;
3280;SDS011;1652;51.31805600;6.20194400;2024-01-30T00:47:08;19.10;;;12.00;;
3280;SDS011;1652;51.31805600;6.20194400;2024-01-30T00:49:35;28.90;;;11.60;;
3280;SDS011;1652;51.31805600;6.20194400;2024-01-30T00:52:03;15.97;;;10.27;;
3280;SDS011;1652;51.31805600;6.20194400;2024-01-30T00:54:30;14.10;;;10.00;;
3280;SDS011;1652;51.31805600;6.20194400;2024-01-30T00:56:57;16.13;;;9.60;;
3280;SDS011;1652;51.31805600;6.20194400;2024-01-30T00:59:24;14.73;;;9.37;;
3280;SDS011;1652;51.31805600;6.20194400;2024-01-30T01:17:31;19.43;;;10.17;;
3280;SDS011;1652;51.31805600;6.20194400;2024-01-30T01:19:58;15.37;;;10.77;;
3280;SDS011;1652;51.31805600;6.20194400;2024-01-30T01:22:26;15.50;;;10.63;;
3280;SDS011;1652;51.31805600;6.20194400;2024-01-30T01:24:55;18.60;;;9.47;;
3280;SDS011;1652;51.31805600;6.20194400;2024-01-30T01:27:22;23.37;;;12.10;;
3280;SDS011;1652;51.31805600;6.20194400;2024-01-30T01:29:49;18.60;;;9.90;;
3280;SDS011;1652;51.31805600;6.20194400;2024-01-30T01:32:16;23.90;;;11.17;;
3280;SDS011;1652;51.31805600;6.20194400;2024-01-30T01:34:43;17.80;;;10.83;;
3280;SDS011;1652;51.31805600;6.20194400;2024-01-30T01:37:10;26.27;;;10.53;;
3280;SDS011;1652;51.31805600;6.20194400;2024-01-30T01:39:37;15.80;;;10.03;;
3280;SDS011;1652;51.31805600;6.20194400;2024-01-30T01:42:07;21.33;;;10.37;;
3280;SDS011;1652;51.31805600;6.20194400;2024-01-30T01:44:34;18.13;;;11.70;;
3280;SDS011;1652;51.31805600;6.20194400;2024-01-30T01:47:01;13.90;;;10.17;;
3280;SDS011;1652;51.31805600;6.20194400;2024-01-30T01:49:28;25.17;;;10.43;;
3280;SDS011;1652;51.31805600;6.20194400;2024-01-30T01:51:55;13.90;;;9.90;;
3280;SDS011;1652;51.31805600;6.20194400;2024-01-30T01:54:24;14.20;;;10.77;;
3280;SDS011;1652;51.31805600;6.20194400;2024-01-30T01:56:53;15.80;;;10.60;;
3280;SDS011;1652;51.31805600;6.20194400;2024-01-30T01:59:20;15.90;;;10.17;;
3280;SDS011;1652;51.31805600;6.20194400;2024-01-30T02:01:50;24.47;;;10.00;;
3280;SDS011;1652;51.31805600;6.20194400;2024-01-30T02:04:18;19.47;;;9.50;;
3280;SDS011;1652;51.31805600;6.20194400;2024-01-30T02:06:45;19.53;;;11.17;;
3280;SDS011;1652;51.31805600;6.20194400;2024-01-30T02:09:12;13.63;;;9.30;;
3280;SDS011;1652;51.31805600;6.20194400;2024-01-30T02:11:39;18.87;;;10.10;;
3280;SDS011;1652;51.31805600;6.20194400;2024-01-30T02:25:53;14.77;;;9.27;;
3280;SDS011;1652;51.31805600;6.20194400;2024-01-30T02:28:24;15.80;;;10.23;;
3280;SDS011;1652;51.31805600;6.20194400;2024-01-30T02:33:27;14.67;;;9.80;;
3280;SDS011;1652;51.31805600;6.20194400;2024-01-30T02:35:54;14.60;;;8.67;;
3280;SDS011;1652;51.31805600;6.20194400;2024-01-30T02:38:21;15.10;;;10.40;;
3280;SDS011;1652;51.31805600;6.20194400;2024-01-30T02:40:49;15.73;;;9.87;;
3280;SDS011;1652;51.31805600;6.20194400;2024-01-30T03:43:58;13.23;;;9.23;;
3280;SDS011;1652;51.31805600;6.20194400;2024-01-30T03:46:25;14.80;;;9.57;;
3280;SDS011;1652;51.31805600;6.20194400;2024-01-30T03:48:52;13.27;;;9.00;;
3280;SDS011;1652;51.31805600;6.20194400;2024-01-30T03:51:19;12.27;;;8.60;;
3280;SDS011;1652;51.31805600;6.20194400;2024-01-30T03:53:46;14.53;;;9.10;;
3280;SDS011;1652;51.31805600;6.20194400;2024-01-30T03:56:13;13.10;;;9.60;;
3280;SDS011;1652;51.31805600;6.20194400;2024-01-30T03:58:40;15.27;;;8.53;;
3280;SDS011;1652;51.31805600;6.20194400;2024-01-30T04:01:07;12.50;;;9.50;;
3280;SDS011;1652;51.31805600;6.20194400;2024-01-30T04:03:42;14.37;;;10.03;;
3280;SDS011;1652;51.31805600;6.20194400;2024-01-30T04:06:10;16.77;;;8.57;;
3280;SDS011;1652;51.31805600;6.20194400;2024-01-30T04:17:47;12.50;;;9.63;;
3280;SDS011;1652;51.31805600;6.20194400;2024-01-30T04:20:15;13.27;;;8.90;;
3280;SDS011;1652;51.31805600;6.20194400;2024-01-30T04:22:45;13.87;;;9.27;;
3280;SDS011;1652;51.31805600;6.20194400;2024-01-30T05:52:45;15.00;;;9.57;;
3280;SDS011;1652;51.31805600;6.20194400;2024-01-30T05:55:21;15.00;;;9.20;;
3280;SDS011;1652;51.31805600;6.20194400;2024-01-30T05:57:49;11.83;;;8.77;;
3280;SDS011;1652;51.31805600;6.20194400;2024-01-30T06:00:17;17.10;;;9.43;;
3280;SDS011;1652;51.31805600;6.20194400;2024-01-30T06:35:40;12.47;;;8.33;;
3280;SDS011;1652;51.31805600;6.20194400;2024-01-30T06:38:31;18.80;;;9.37;;
3280;SDS011;1652;51.31805600;6.20194400;2024-01-30T06:40:59;16.37;;;8.60;;
3280;SDS011;1652;51.31805600;6.20194400;2024-01-30T06:43:26;14.60;;;9.03;;
3280;SDS011;1652;51.31805600;6.20194400;2024-01-30T06:45:53;13.83;;;8.73;;
3280;SDS011;1652;51.31805600;6.20194400;2024-01-30T06:48:24;10.80;;;7.77;;
3280;SDS011;1652;51.31805600;6.20194400;2024-01-30T06:50:57;12.33;;;8.93;;
3280;SDS011;1652;51.31805600;6.20194400;2024-01-30T06:53:24;14.93;;;9.47;;
3280;SDS011;1652;51.31805600;6.20194400;2024-01-30T06:55:52;11.97;;;9.20;;
3280;SDS011;1652;51.31805600;6.20194400;2024-01-30T06:58:21;8.63;;;7.73;;
3280;SDS011;1652;51.31805600;6.20194400;2024-01-30T07:00:48;14.33;;;8.90;;
3280;SDS011;1652;51.31805600;6.20194400;2024-01-30T07:03:15;11.80;;;8.10;;
3280;SDS011;1652;51.31805600;6.20194400;2024-01-30T07:40:45;10.33;;;8.30;;
3280;SDS011;1652;51.31805600;6.20194400;2024-01-30T07:43:13;10.83;;;8.93;;
3280;SDS011;1652;51.31805600;6.20194400;2024-01-30T07:45:43;9.27;;;7.67;;
3280;SDS011;1652;51.31805600;6.20194400;2024-01-30T07:48:10;12.63;;;8.27;;
3280;SDS011;1652;51.31805600;6.20194400;2024-01-30T07:50:37;14.00;;;8.60;;
3280;SDS011;1652;51.31805600;6.20194400;2024-01-30T07:53:05;14.10;;;8.10;;
3280;SDS011;1652;51.31805600;6.20194400;2024-01-30T07:55:32;17.00;;;8.70;;
3280;SDS011;1652;51.31805600;6.20194400;2024-01-30T07:57:59;11.67;;;8.33;;
3280;SDS011;1652;51.31805600;6.20194400;2024-01-30T08:00:26;12.23;;;8.40;;
3280;SDS011;1652;51.31805600;6.20194400;2024-01-30T08:02:55;9.70;;;7.40;;
3280;SDS011;1652;51.31805600;6.20194400;2024-01-30T08:05:23;12.00;;;8.47;;
3280;SDS011;1652;51.31805600;6.20194400;2024-01-30T08:07:50;13.30;;;8.53;;
3280;SDS011;1652;51.31805600;6.20194400;2024-01-30T08:10:18;11.80;;;9.03;;
3280;SDS011;1652;51.31805600;6.20194400;2024-01-30T08:12:45;11.70;;;8.73;;
3280;SDS011;1652;51.31805600;6.20194400;2024-01-30T08:15:13;13.10;;;8.87;;
3280;SDS011;1652;51.31805600;6.20194400;2024-01-30T08:17:40;8.47;;;7.67;;
3280;SDS011;1652;51.31805600;6.20194400;2024-01-30T08:20:07;14.23;;;8.53;;
3280;SDS011;1652;51.31805600;6.20194400;2024-01-30T08:22:40;11.43;;;8.70;;
3280;SDS011;1652;51.31805600;6.20194400;2024-01-30T08:25:07;17.20;;;9.67;;
3280;SDS011;1652;51.31805600;6.20194400;2024-01-30T08:27:36;9.40;;;7.90;;
3280;SDS011;1652;51.31805600;6.20194400;2024-01-30T08:30:07;16.63;;;9.70;;
3280;SDS011;1652;51.31805600;6.20194400;2024-01-30T08:32:35;10.10;;;9.10;;
3280;SDS011;1652;51.31805600;6.20194400;2024-01-30T08:35:02;11.40;;;9.33;;
3280;SDS011;1652;51.31805600;6.20194400;2024-01-30T08:37:30;14.90;;;10.50;;
3280;SDS011;1652;51.31805600;6.20194400;2024-01-30T08:39:57;11.50;;;8.63;;
3280;SDS011;1652;51.31805600;6.20194400;2024-01-30T08:42:24;13.10;;;8.97;;
3280;SDS011;1652;51.31805600;6.20194400;2024-01-30T08:44:51;16.33;;;10.40;;
3280;SDS011;1652;51.31805600;6.20194400;2024-01-30T08:47:19;14.27;;;10.97;;
3280;SDS011;1652;51.31805600;6.20194400;2024-01-30T08:49:46;17.00;;;11.40;;
3280;SDS011;1652;51.31805600;6.20194400;2024-01-30T08:52:13;16.83;;;11.80;;
3280;SDS011;1652;51.31805600;6.20194400;2024-01-30T08:54:40;16.73;;;10.93;;
3280;SDS011;1652;51.31805600;6.20194400;2024-01-30T08:57:07;13.27;;;9.83;;
3280;SDS011;1652;51.31805600;6.20194400;2024-01-30T08:59:34;18.63;;;9.50;;
3280;SDS011;1652;51.31805600;6.20194400;2024-01-30T09:09:59;10.17;;;8.07;;
3280;SDS011;1652;51.31805600;6.20194400;2024-01-30T09:12:27;13.30;;;8.37;;
3280;SDS011;1652;51.31805600;6.20194400;2024-01-30T09:14:54;10.13;;;8.03;;
3280;SDS011;1652;51.31805600;6.20194400;2024-01-30T09:17:21;13.33;;;8.60;;
3280;SDS011;1652;51.31805600;6.20194400;2024-01-30T09:19:48;16.17;;;7.90;;
3280;SDS011;1652;51.31805600;6.20194400;2024-01-30T09:22:19;8.07;;;6.97;;
3280;SDS011;1652;51.31805600;6.20194400;2024-01-30T09:24:46;14.70;;;8.10;;
3280;SDS011;1652;51.31805600;6.20194400;2024-01-30T09:29:38;13.80;;;8.20;;
3280;SDS011;1652;51.31805600;6.20194400;2024-01-30T09:32:05;10.50;;;7.27;;
3280;SDS011;1652;51.31805600;6.20194400;2024-01-30T09:34:33;13.03;;;7.30;;
3280;SDS011;1652;51.31805600;6.20194400;2024-01-30T09:37:00;9.87;;;7.13;;
3280;SDS011;1652;51.31805600;6.20194400;2024-01-30T09:39:27;11.73;;;7.27;;
3280;SDS011;1652;51.31805600;6.20194400;2024-01-30T09:42:02;8.20;;;6.10;;
3280;SDS011;1652;51.31805600;6.20194400;2024-01-30T09:44:37;16.00;;;6.80;;
3280;SDS011;1652;51.31805600;6.20194400;2024-01-30T09:47:08;8.93;;;5.57;;
3280;SDS011;1652;51.31805600;6.20194400;2024-01-30T09:49:36;11.20;;;6.47;;
3280;SDS011;1652;51.31805600;6.20194400;2024-01-30T09:52:07;14.70;;;5.90;;
3280;SDS011;1652;51.31805600;6.20194400;2024-01-30T09:54:41;7.03;;;4.63;;
3280;SDS011;1652;51.31805600;6.20194400;2024-01-30T09:57:11;6.27;;;4.80;;
3280;SDS011;1652;51.31805600;6.20194400;2024-01-30T09:59:44;13.53;;;5.43;;
3280;SDS011;1652;51.31805600;6.20194400;2024-01-30T10:41:43;8.60;;;5.13;;
3280;SDS011;1652;51.31805600;6.20194400;2024-01-30T10:44:21;10.40;;;6.10;;
3280;SDS011;1652;51.31805600;6.20194400;2024-01-30T10:47:05;7.10;;;5.73;;
3280;SDS011;1652;51.31805600;6.20194400;2024-01-30T10:49:36;6.80;;;5.50;;
3280;SDS011;1652;51.31805600;6.20194400;2024-01-30T10:52:03;5.80;;;5.20;;
3280;SDS011;1652;51.31805600;6.20194400;2024-01-30T10:54:32;8.97;;;5.50;;
3280;SDS011;1652;51.31805600;6.20194400;2024-01-30T10:57:02;12.87;;;5.87;;
3280;SDS011;1652;51.31805600;6.20194400;2024-01-30T10:59:30;10.73;;;5.70;;
3280;SDS011;1652;51.31805600;6.20194400;2024-01-30T11:01:58;10.03;;;5.53;;
3280;SDS011;1652;51.31805600;6.20194400;2024-01-30T11:04:26;7.63;;;4.90;;
3280;SDS011;1652;51.31805600;6.20194400;2024-01-30T11:06:53;14.13;;;5.53;;
3280;SDS011;1652;51.31805600;6.20194400;2024-01-30T11:09:21;9.33;;;5.60;;
3280;SDS011;1652;51.31805600;6.20194400;2024-01-30T11:11:50;6.13;;;4.33;;
3280;SDS011;1652;51.31805600;6.20194400;2024-01-30T11:14:24;7.10;;;5.47;;
3280;SDS011;1652;51.31805600;6.20194400;2024-01-30T11:16:52;10.20;;;5.40;;
3280;SDS011;1652;51.31805600;6.20194400;2024-01-30T11:19:23;10.90;;;5.60;;
3280;SDS011;1652;51.31805600;6.20194400;2024-01-30T11:21:54;6.67;;;5.07;;
3280;SDS011;1652;51.31805600;6.20194400;2024-01-30T11:24:22;6.23;;;4.90;;
3280;SDS011;1652;51.31805600;6.20194400;2024-01-30T11:26:56;13.33;;;5.50;;
3280;SDS011;1652;51.31805600;6.20194400;2024-01-30T11:29:25;8.60;;;5.70;;
3280;SDS011;1652;51.31805600;6.20194400;2024-01-30T11:31:59;13.03;;;5.47;;
3280;SDS011;1652;51.31805600;6.20194400;2024-01-30T11:34:26;9.97;;;5.10;;
3280;SDS011;1652;51.31805600;6.20194400;2024-01-30T11:37:01;8.47;;;4.87;;
3280;SDS011;1652;51.31805600;6.20194400;2024-01-30T11:39:31;9.00;;;5.27;;
3280;SDS011;1652;51.31805600;6.20194400;2024-01-30T11:41:59;10.27;;;5.13;;
3280;SDS011;1652;51.31805600;6.20194400;2024-01-30T11:44:26;16.73;;;8.73;;
3280;SDS011;1652;51.31805600;6.20194400;2024-01-30T11:46:53;10.13;;;5.97;;
3280;SDS011;1652;51.31805600;6.20194400;2024-01-30T11:49:20;7.33;;;5.30;;
3280;SDS011;1652;51.31805600;6.20194400;2024-01-30T11:51:47;8.03;;;5.30;;
3280;SDS011;1652;51.31805600;6.20194400;2024-01-30T11:54:15;9.60;;;5.83;;
3280;SDS011;1652;51.31805600;6.20194400;2024-01-30T11:56:42;10.20;;;5.73;;
3280;SDS011;1652;51.31805600;6.20194400;2024-01-30T11:59:10;12.17;;;7.00;;
3280;SDS011;1652;51.31805600;6.20194400;2024-01-30T12:01:36;12.70;;;8.03;;
3280;SDS011;1652;51.31805600;6.20194400;2024-01-30T12:04:04;14.97;;;9.17;;
3280;SDS011;1652;51.31805600;6.20194400;2024-01-30T12:06:36;9.73;;;6.67;;
3280;SDS011;1652;51.31805600;6.20194400;2024-01-30T12:09:04;15.63;;;5.97;;
3280;SDS011;1652;51.31805600;6.20194400;2024-01-30T12:11:31;9.67;;;5.50;;
3280;SDS011;1652;51.31805600;6.20194400;2024-01-30T12:13:58;13.43;;;6.87;;
3280;SDS011;1652;51.31805600;6.20194400;2024-01-30T12:16:25;9.97;;;5.30;;
3280;SDS011;1652;51.31805600;6.20194400;2024-01-30T12:18:59;17.00;;;6.73;;
3280;SDS011;1652;51.31805600;6.20194400;2024-01-30T12:21:30;9.57;;;6.07;;
3280;SDS011;1652;51.31805600;6.20194400;2024-01-30T12:23:57;14.00;;;6.03;;
3280;SDS011;1652;51.31805600;6.20194400;2024-01-30T12:26:25;8.10;;;6.20;;
3280;SDS011;1652;51.31805600;6.20194400;2024-01-30T12:28:56;14.13;;;6.20;;
3280;SDS011;1652;51.31805600;6.20194400;2024-01-30T12:31:25;11.97;;;5.83;;
3280;SDS011;1652;51.31805600;6.20194400;2024-01-30T12:33:55;9.97;;;6.40;;
3280;SDS011;1652;51.31805600;6.20194400;2024-01-30T12:36:24;11.50;;;5.67;;
3280;SDS011;1652;51.31805600;6.20194400;2024-01-30T12:38:52;12.63;;;6.13;;
3280;SDS011;1652;51.31805600;6.20194400;2024-01-30T12:41:19;9.07;;;5.80;;
3280;SDS011;1652;51.31805600;6.20194400;2024-01-30T12:43:46;8.17;;;5.80;;
3280;SDS011;1652;51.31805600;6.20194400;2024-01-30T12:46:16;10.63;;;4.90;;
3280;SDS011;1652;51.31805600;6.20194400;2024-01-30T12:48:44;12.83;;;5.77;;
3280;SDS011;1652;51.31805600;6.20194400;2024-01-30T12:51:11;7.63;;;5.50;;
3280;SDS011;1652;51.31805600;6.20194400;2024-01-30T12:53:38;7.10;;;5.73;;
3280;SDS011;1652;51.31805600;6.20194400;2024-01-30T12:56:08;6.20;;;4.87;;
3280;SDS011;1652;51.31805600;6.20194400;2024-01-30T12:58:35;15.33;;;6.53;;
3280;SDS011;1652;51.31805600;6.20194400;2024-01-30T13:11:59;7.60;;;5.57;;
3280;SDS011;1652;51.31805600;6.20194400;2024-01-30T13:14:30;9.80;;;5.37;;
3280;SDS011;1652;51.31805600;6.20194400;2024-01-30T13:17:15;10.10;;;5.67;;
3280;SDS011;1652;51.31805600;6.20194400;2024-01-30T13:19:42;13.40;;;4.67;;
3280;SDS011;1652;51.31805600;6.20194400;2024-01-30T13:22:09;8.37;;;5.30;;
3280;SDS011;1652;51.31805600;6.20194400;2024-01-30T13:24:37;14.23;;;5.57;;
3280;SDS011;1652;51.31805600;6.20194400;2024-01-30T13:27:04;6.90;;;5.37;;
3280;SDS011;1652;51.31805600;6.20194400;2024-01-30T13:29:35;9.90;;;5.13;;
3280;SDS011;1652;51.31805600;6.20194400;2024-01-30T13:32:02;7.57;;;5.27;;
3280;SDS011;1652;51.31805600;6.20194400;2024-01-30T13:34:30;7.27;;;5.63;;
3280;SDS011;1652;51.31805600;6.20194400;2024-01-30T13:36:57;7.53;;;5.23;;
3280;SDS011;1652;51.31805600;6.20194400;2024-01-30T13:39:24;6.80;;;5.83;;
3280;SDS011;1652;51.31805600;6.20194400;2024-01-30T13:41:58;6.47;;;5.80;;
3280;SDS011;1652;51.31805600;6.20194400;2024-01-30T13:44:25;6.53;;;5.10;;
3280;SDS011;1652;51.31805600;6.20194400;2024-01-30T13:46:52;10.80;;;6.13;;
3280;SDS011;1652;51.31805600;6.20194400;2024-01-30T13:49:19;8.73;;;5.80;;
3280;SDS011;1652;51.31805600;6.20194400;2024-01-30T13:51:46;10.10;;;6.30;;
3280;SDS011;1652;51.31805600;6.20194400;2024-01-30T13:54:13;10.33;;;5.27;;
3280;SDS011;1652;51.31805600;6.20194400;2024-01-30T13:56:41;6.47;;;5.63;;
3280;SDS011;1652;51.31805600;6.20194400;2024-01-30T13:59:08;5.70;;;5.20;;
3280;SDS011;1652;51.31805600;6.20194400;2024-01-30T14:01:35;7.40;;;4.53;;
3280;SDS011;1652;51.31805600;6.20194400;2024-01-30T14:04:02;12.50;;;4.17;;
3280;SDS011;1652;51.31805600;6.20194400;2024-01-30T14:06:34;12.07;;;3.87;;
3280;SDS011;1652;51.31805600;6.20194400;2024-01-30T14:09:21;4.93;;;4.17;;
3280;SDS011;1652;51.31805600;6.20194400;2024-01-30T14:11:48;6.37;;;3.03;;
3280;SDS011;1652;51.31805600;6.20194400;2024-01-30T14:14:15;7.10;;;3.47;;
3280;SDS011;1652;51.31805600;6.20194400;2024-01-30T14:16:42;4.17;;;3.67;;
3280;SDS011;1652;51.31805600;6.20194400;2024-01-30T14:19:09;3.97;;;3.23;;
3280;SDS011;1652;51.31805600;6.20194400;2024-01-30T14:21:36;10.33;;;3.53;;
3280;SDS011;1652;51.31805600;6.20194400;2024-01-30T14:24:03;6.60;;;2.80;;
3280;SDS011;1652;51.31805600;6.20194400;2024-01-30T14:26:30;8.93;;;6.50;;
3280;SDS011;1652;51.31805600;6.20194400;2024-01-30T14:28:57;4.27;;;3.60;;
3280;SDS011;1652;51.31805600;6.20194400;2024-01-30T14:31:24;9.23;;;3.80;;
3280;SDS011;1652;51.31805600;6.20194400;2024-01-30T14:33:51;10.00;;;6.17;;
3280;SDS011;1652;51.31805600;6.20194400;2024-01-30T14:36:18;7.60;;;5.00;;
3280;SDS011;1652;51.31805600;6.20194400;2024-01-30T14:38:46;1.80;;;1.50;;
3280;SDS011;1652;51.31805600;6.20194400;2024-01-30T14:41:14;3.70;;;1.40;;
3280;SDS011;1652;51.31805600;6.20194400;2024-01-30T14:43:41;2.37;;;0.80;;
3280;SDS011;1652;51.31805600;6.20194400;2024-01-30T14:46:07;4.03;;;0.80;;
3280;SDS011;1652;51.31805600;6.20194400;2024-01-30T14:48:35;3.67;;;0.93;;
3280;SDS011;1652;51.31805600;6.20194400;2024-01-30T14:51:02;5.03;;;1.30;;
3280;SDS011;1652;51.31805600;6.20194400;2024-01-30T14:53:29;1.87;;;0.90;;
3280;SDS011;1652;51.31805600;6.20194400;2024-01-30T14:55:56;1.77;;;0.90;;
3280;SDS011;1652;51.31805600;6.20194400;2024-01-30T14:58:22;1.20;;;0.80;;
3280;SDS011;1652;51.31805600;6.20194400;2024-01-30T15:00:50;1.83;;;1.00;;
3280;SDS011;1652;51.31805600;6.20194400;2024-01-30T15:03:17;1.53;;;0.60;;
3280;SDS011;1652;51.31805600;6.20194400;2024-01-30T15:05:44;2.07;;;1.10;;
3280;SDS011;1652;51.31805600;6.20194400;2024-01-30T15:08:11;10.13;;;2.60;;
3280;SDS011;1652;51.31805600;6.20194400;2024-01-30T15:22:50;1.80;;;1.10;;
3280;SDS011;1652;51.31805600;6.20194400;2024-01-30T15:25:17;3.77;;;1.00;;
3280;SDS011;1652;51.31805600;6.20194400;2024-01-30T15:27:43;3.67;;;1.37;;
3280;SDS011;1652;51.31805600;6.20194400;2024-01-30T15:30:11;10.67;;;1.30;;
3280;SDS011;1652;51.31805600;6.20194400;2024-01-30T15:32:38;4.10;;;1.20;;
3280;SDS011;1652;51.31805600;6.20194400;2024-01-30T15:35:05;2.43;;;1.00;;
3280;SDS011;1652;51.31805600;6.20194400;2024-01-30T15:37:33;5.20;;;1.40;;
3280;SDS011;1652;51.31805600;6.20194400;2024-01-30T15:56:06;1.77;;;1.43;;
3280;SDS011;1652;51.31805600;6.20194400;2024-01-30T16:01:11;3.50;;;1.20;;
3280;SDS011;1652;51.31805600;6.20194400;2024-01-30T16:03:38;5.00;;;1.50;;
3280;SDS011;1652;51.31805600;6.20194400;2024-01-30T16:06:06;2.73;;;1.67;;
3280;SDS011;1652;51.31805600;6.20194400;2024-01-30T16:08:33;6.33;;;1.90;;
3280;SDS011;1652;51.31805600;6.20194400;2024-01-30T16:11:00;5.30;;;1.80;;
3280;SDS011;1652;51.31805600;6.20194400;2024-01-30T16:13:27;1.60;;;1.10;;
3280;SDS011;1652;51.31805600;6.20194400;2024-01-30T16:15:54;4.27;;;2.10;;
3280;SDS011;1652;51.31805600;6.20194400;2024-01-30T16:18:20;8.80;;;1.93;;
3280;SDS011;1652;51.31805600;6.20194400;2024-01-30T16:20:47;2.90;;;1.13;;
3280;SDS011;1652;51.31805600;6.20194400;2024-01-30T16:23:14;4.50;;;1.87;;
3280;SDS011;1652;51.31805600;6.20194400;2024-01-30T16:25:43;3.00;;;1.57;;
3280;SDS011;1652;51.31805600;6.20194400;2024-01-30T16:28:10;1.27;;;1.10;;
3280;SDS011;1652;51.31805600;6.20194400;2024-01-30T16:30:37;1.27;;;1.17;;
3280;SDS011;1652;51.31805600;6.20194400;2024-01-30T16:33:06;1.83;;;1.53;;
3280;SDS011;1652;51.31805600;6.20194400;2024-01-30T16:35:34;4.50;;;1.93;;
3280;SDS011;1652;51.31805600;6.20194400;2024-01-30T16:38:12;5.00;;;4.00;;
3280;SDS011;1652;51.31805600;6.20194400;2024-01-30T16:40:39;4.17;;;2.50;;
3280;SDS011;1652;51.31805600;6.20194400;2024-01-30T16:43:06;4.00;;;2.30;;
3280;SDS011;1652;51.31805600;6.20194400;2024-01-30T16:45:33;2.77;;;1.83;;
3280;SDS011;1652;51.31805600;6.20194400;2024-01-30T16:48:00;9.73;;;6.03;;
3280;SDS011;1652;51.31805600;6.20194400;2024-01-30T16:50:26;2.37;;;2.17;;
3280;SDS011;1652;51.31805600;6.20194400;2024-01-30T16:52:53;6.60;;;4.20;;
3280;SDS011;1652;51.31805600;6.20194400;2024-01-30T16:55:20;7.50;;;2.90;;
3280;SDS011;1652;51.31805600;6.20194400;2024-01-30T16:57:48;2.60;;;2.20;;
3280;SDS011;1652;51.31805600;6.20194400;2024-01-30T17:00:15;2.23;;;1.50;;
3280;SDS011;1652;51.31805600;6.20194400;2024-01-30T17:02:43;5.93;;;1.90;;
3280;SDS011;1652;51.31805600;6.20194400;2024-01-30T17:05:11;7.43;;;2.03;;
3280;SDS011;1652;51.31805600;6.20194400;2024-01-30T17:07:54;1.80;;;1.43;;
3280;SDS011;1652;51.31805600;6.20194400;2024-01-30T17:10:21;3.67;;;1.60;;
3280;SDS011;1652;51.31805600;6.20194400;2024-01-30T17:12:48;4.70;;;1.67;;
3280;SDS011;1652;51.31805600;6.20194400;2024-01-30T17:15:15;3.40;;;3.10;;
3280;SDS011;1652;51.31805600;6.20194400;2024-01-30T17:17:42;8.40;;;5.10;;
3280;SDS011;1652;51.31805600;6.20194400;2024-01-30T17:20:10;1.60;;;1.50;;
3280;SDS011;1652;51.31805600;6.20194400;2024-01-30T17:22:38;2.03;;;1.90;;
3280;SDS011;1652;51.31805600;6.20194400;2024-01-30T17:25:10;15.80;;;2.50;;
3280;SDS011;1652;51.31805600;6.20194400;2024-01-30T17:27:37;7.13;;;1.80;;
3280;SDS011;1652;51.31805600;6.20194400;2024-01-30T17:30:04;2.27;;;2.07;;
3280;SDS011;1652;51.31805600;6.20194400;2024-01-30T17:32:32;7.23;;;5.43;;
3280;SDS011;1652;51.31805600;6.20194400;2024-01-30T17:34:59;4.70;;;4.13;;
3280;SDS011;1652;51.31805600;6.20194400;2024-01-30T17:37:26;6.03;;;4.00;;
3280;SDS011;1652;51.31805600;6.20194400;2024-01-30T17:39:53;5.20;;;2.93;;
3280;SDS011;1652;51.31805600;6.20194400;2024-01-30T17:42:20;4.53;;;4.13;;
3280;SDS011;1652;51.31805600;6.20194400;2024-01-30T17:47:51;3.70;;;2.87;;
3280;SDS011;1652;51.31805600;6.20194400;2024-01-30T17:50:18;9.17;;;2.77;;
3280;SDS011;1652;51.31805600;6.20194400;2024-01-30T17:52:45;7.63;;;2.60;;
3280;SDS011;1652;51.31805600;6.20194400;2024-01-30T17:55:12;7.60;;;3.60;;
3280;SDS011;1652;51.31805600;6.20194400;2024-01-30T17:57:39;3.47;;;3.17;;
3280;SDS011;1652;51.31805600;6.20194400;2024-01-30T18:00:06;3.13;;;2.87;;
3280;SDS011;1652;51.31805600;6.20194400;2024-01-30T18:02:33;3.07;;;2.73;;
3280;SDS011;1652;51.31805600;6.20194400;2024-01-30T18:08:31;4.20;;;3.87;;
3280;SDS011;1652;51.31805600;6.20194400;2024-01-30T18:10:59;8.00;;;4.20;;
3280;SDS011;1652;51.31805600;6.20194400;2024-01-30T18:13:26;5.50;;;4.23;;
3280;SDS011;1652;51.31805600;6.20194400;2024-01-30T18:15:53;4.20;;;3.90;;
3280;SDS011;1652;51.31805600;6.20194400;2024-01-30T18:18:20;5.40;;;3.83;;
3280;SDS011;1652;51.31805600;6.20194400;2024-01-30T18:20:47;4.80;;;3.53;;
3280;SDS011;1652;51.31805600;6.20194400;2024-01-30T18:23:15;8.77;;;6.40;;
3280;SDS011;1652;51.31805600;6.20194400;2024-01-30T18:25:42;4.97;;;4.67;;
3280;SDS011;1652;51.31805600;6.20194400;2024-01-30T18:28:09;4.03;;;3.37;;
3280;SDS011;1652;51.31805600;6.20194400;2024-01-30T18:30:36;10.10;;;3.67;;
3280;SDS011;1652;51.31805600;6.20194400;2024-01-30T18:33:03;6.60;;;3.80;;
3280;SDS011;1652;51.31805600;6.20194400;2024-01-30T18:35:31;5.00;;;3.80;;
3280;SDS011;1652;51.31805600;6.20194400;2024-01-30T18:37:59;7.47;;;4.93;;
3280;SDS011;1652;51.31805600;6.20194400;2024-01-30T18:40:28;8.57;;;5.47;;
3280;SDS011;1652;51.31805600;6.20194400;2024-01-30T18:42:55;11.03;;;7.27;;
3280;SDS011;1652;51.31805600;6.20194400;2024-01-30T18:45:22;7.90;;;5.17;;
3280;SDS011;1652;51.31805600;6.20194400;2024-01-30T18:47:50;7.33;;;4.73;;
3280;SDS011;1652;51.31805600;6.20194400;2024-01-30T18:50:16;7.03;;;3.90;;
3280;SDS011;1652;51.31805600;6.20194400;2024-01-30T18:52:44;5.03;;;4.40;;
3280;SDS011;1652;51.31805600;6.20194400;2024-01-30T18:55:11;5.30;;;4.80;;
3280;SDS011;1652;51.31805600;6.20194400;2024-01-30T18:57:39;11.40;;;5.10;;
3280;SDS011;1652;51.31805600;6.20194400;2024-01-30T19:00:06;12.23;;;4.93;;
3280;SDS011;1652;51.31805600;6.20194400;2024-01-30T19:02:34;5.67;;;5.10;;
3280;SDS011;1652;51.31805600;6.20194400;2024-01-30T19:05:01;5.67;;;4.63;;
3280;SDS011;1652;51.31805600;6.20194400;2024-01-30T19:07:28;8.17;;;6.00;;